sensor_id;sensor_type;location;lat;lon;timestamp;P1;durP1;ratioP1;P2;durP2;ratioP2
4428;SDS011;2227;47.810;8.810;2023-07-29T04:32:33;5.00;;;3.08;;
4428;SDS011;2227;47.810;8.810;2023-07-29T04:34:59;5.57;;;2.78;;
4428;SDS011;2227;47.810;8.810;2023-07-29T04:37:26;5.63;;;2.72;;
4428;SDS011;2227;47.810;8.810;2023-07-29T04:39:53;5.35;;;3.25;;
4428;SDS011;2227;47.810;8.810;2023-07-29T04:42:20;4.45;;;2.60;;
4428;SDS011;2227;47.810;8.810;2023-07-29T04:44:46;4.55;;;2.88;;
4428;SDS011;2227;47.810;8.810;2023-07-29T04:47:13;5.68;;;3.33;;
4428;SDS011;2227;47.810;8.810;2023-07-29T04:49:40;4.03;;;2.55;;
4428;SDS011;2227;47.810;8.810;2023-07-29T04:52:07;6.38;;;3.05;;
4428;SDS011;2227;47.810;8.810;2023-07-29T04:54:34;5.25;;;2.88;;
4428;SDS011;2227;47.810;8.810;2023-07-29T04:57:01;4.50;;;2.65;;
4428;SDS011;2227;47.810;8.810;2023-07-29T04:59:27;4.63;;;2.58;;
4428;SDS011;2227;47.810;8.810;2023-07-29T05:01:54;5.25;;;3.05;;
4428;SDS011;2227;47.810;8.810;2023-07-29T05:04:21;5.53;;;3.22;;
4428;SDS011;2227;47.810;8.810;2023-07-29T05:06:49;4.88;;;3.00;;
4428;SDS011;2227;47.810;8.810;2023-07-29T05:09:17;5.50;;;3.10;;
4428;SDS011;2227;47.810;8.810;2023-07-29T05:11:44;4.65;;;2.92;;
4428;SDS011;2227;47.810;8.810;2023-07-29T05:14:16;6.43;;;2.80;;
4428;SDS011;2227;47.810;8.810;2023-07-29T05:16:44;6.13;;;2.95;;
4428;SDS011;2227;47.810;8.810;2023-07-29T05:19:10;5.18;;;3.55;;
4428;SDS011;2227;47.810;8.810;2023-07-29T05:21:38;5.05;;;2.58;;
4428;SDS011;2227;47.810;8.810;2023-07-29T05:24:05;4.47;;;2.95;;
4428;SDS011;2227;47.810;8.810;2023-07-29T05:26:32;5.22;;;2.92;;
4428;SDS011;2227;47.810;8.810;2023-07-29T05:28:59;5.25;;;2.45;;
4428;SDS011;2227;47.810;8.810;2023-07-29T05:31:25;5.65;;;3.53;;
4428;SDS011;2227;47.810;8.810;2023-07-29T05:33:52;6.10;;;2.88;;
4428;SDS011;2227;47.810;8.810;2023-07-29T05:36:19;5.38;;;2.80;;
4428;SDS011;2227;47.810;8.810;2023-07-29T05:38:46;5.07;;;2.75;;
4428;SDS011;2227;47.810;8.810;2023-07-29T05:41:12;4.90;;;2.97;;
4428;SDS011;2227;47.810;8.810;2023-07-29T05:43:39;5.60;;;2.60;;
4428;SDS011;2227;47.810;8.810;2023-07-29T05:46:06;5.57;;;2.97;;
4428;SDS011;2227;47.810;8.810;2023-07-29T05:48:33;5.28;;;2.85;;
4428;SDS011;2227;47.810;8.810;2023-07-29T05:51:00;4.63;;;2.60;;
4428;SDS011;2227;47.810;8.810;2023-07-29T05:53:27;6.95;;;2.90;;
4428;SDS011;2227;47.810;8.810;2023-07-29T05:55:53;4.80;;;2.58;;
4428;SDS011;2227;47.810;8.810;2023-07-29T05:58:20;5.32;;;3.03;;
4428;SDS011;2227;47.810;8.810;2023-07-29T06:00:48;4.30;;;2.92;;
4428;SDS011;2227;47.810;8.810;2023-07-29T06:03:15;7.18;;;3.55;;
4428;SDS011;2227;47.810;8.810;2023-07-29T06:05:42;5.25;;;2.97;;
4428;SDS011;2227;47.810;8.810;2023-07-29T06:08:09;5.75;;;3.17;;
4428;SDS011;2227;47.810;8.810;2023-07-29T06:10:37;5.30;;;3.63;;
4428;SDS011;2227;47.810;8.810;2023-07-29T06:13:04;7.88;;;4.20;;
4428;SDS011;2227;47.810;8.810;2023-07-29T06:15:31;6.45;;;4.28;;
4428;SDS011;2227;47.810;8.810;2023-07-29T06:17:57;7.07;;;4.82;;
4428;SDS011;2227;47.810;8.810;2023-07-29T06:20:24;6.50;;;4.57;;
4428;SDS011;2227;47.810;8.810;2023-07-29T06:22:51;6.72;;;4.82;;
4428;SDS011;2227;47.810;8.810;2023-07-29T06:25:18;7.03;;;4.20;;
4428;SDS011;2227;47.810;8.810;2023-07-29T06:27:44;7.38;;;4.53;;
4428;SDS011;2227;47.810;8.810;2023-07-29T06:30:11;5.88;;;4.50;;
4428;SDS011;2227;47.810;8.810;2023-07-29T06:32:38;8.02;;;5.05;;
4428;SDS011;2227;47.810;8.810;2023-07-29T06:35:05;8.02;;;4.90;;
4428;SDS011;2227;47.810;8.810;2023-07-29T06:37:32;8.10;;;4.90;;
4428;SDS011;2227;47.810;8.810;2023-07-29T06:39:59;7.32;;;4.47;;
4428;SDS011;2227;47.810;8.810;2023-07-29T06:42:26;8.18;;;4.60;;
4428;SDS011;2227;47.810;8.810;2023-07-29T06:44:53;6.18;;;4.15;;
4428;SDS011;2227;47.810;8.810;2023-07-29T06:47:19;7.60;;;4.75;;
4428;SDS011;2227;47.810;8.810;2023-07-29T06:49:46;5.82;;;3.80;;
4428;SDS011;2227;47.810;8.810;2023-07-29T06:52:13;6.93;;;3.75;;
4428;SDS011;2227;47.810;8.810;2023-07-29T06:54:40;9.00;;;4.00;;
4428;SDS011;2227;47.810;8.810;2023-07-29T06:57:06;6.88;;;3.42;;
4428;SDS011;2227;47.810;8.810;2023-07-29T06:59:34;5.22;;;4.00;;
4428;SDS011;2227;47.810;8.810;2023-07-29T07:02:01;6.55;;;4.63;;
4428;SDS011;2227;47.810;8.810;2023-07-29T07:04:28;6.60;;;4.55;;
4428;SDS011;2227;47.810;8.810;2023-07-29T07:06:55;6.72;;;4.07;;
4428;SDS011;2227;47.810;8.810;2023-07-29T07:09:21;6.03;;;4.05;;
4428;SDS011;2227;47.810;8.810;2023-07-29T07:11:48;6.13;;;4.25;;
4428;SDS011;2227;47.810;8.810;2023-07-29T07:14:15;6.25;;;4.20;;
4428;SDS011;2227;47.810;8.810;2023-07-29T07:16:42;7.80;;;4.45;;
4428;SDS011;2227;47.810;8.810;2023-07-29T07:19:09;6.22;;;3.95;;
4428;SDS011;2227;47.810;8.810;2023-07-29T07:21:35;5.72;;;3.88;;
4428;SDS011;2227;47.810;8.810;2023-07-29T07:24:02;5.93;;;4.43;;
4428;SDS011;2227;47.810;8.810;2023-07-29T07:26:29;6.60;;;4.20;;
4428;SDS011;2227;47.810;8.810;2023-07-29T07:28:55;7.15;;;4.07;;
4428;SDS011;2227;47.810;8.810;2023-07-29T07:31:22;4.93;;;3.58;;
4428;SDS011;2227;47.810;8.810;2023-07-29T07:33:49;6.45;;;3.70;;
4428;SDS011;2227;47.810;8.810;2023-07-29T07:36:16;7.28;;;4.32;;
4428;SDS011;2227;47.810;8.810;2023-07-29T07:38:43;6.03;;;3.78;;
4428;SDS011;2227;47.810;8.810;2023-07-29T07:41:09;7.07;;;3.90;;
4428;SDS011;2227;47.810;8.810;2023-07-29T07:43:36;5.85;;;3.60;;
4428;SDS011;2227;47.810;8.810;2023-07-29T07:46:03;5.68;;;4.10;;
4428;SDS011;2227;47.810;8.810;2023-07-29T07:48:30;5.43;;;4.00;;
4428;SDS011;2227;47.810;8.810;2023-07-29T07:50:59;6.55;;;3.92;;
4428;SDS011;2227;47.810;8.810;2023-07-29T07:53:25;6.68;;;4.00;;
4428;SDS011;2227;47.810;8.810;2023-07-29T07:55:52;5.70;;;3.85;;
4428;SDS011;2227;47.810;8.810;2023-07-29T07:58:19;5.60;;;3.58;;
4428;SDS011;2227;47.810;8.810;2023-07-29T08:00:46;5.32;;;3.63;;
4428;SDS011;2227;47.810;8.810;2023-07-29T08:03:13;5.78;;;4.25;;
4428;SDS011;2227;47.810;8.810;2023-07-29T08:05:39;5.25;;;3.55;;
4428;SDS011;2227;47.810;8.810;2023-07-29T08:08:06;5.68;;;3.35;;
4428;SDS011;2227;47.810;8.810;2023-07-29T08:10:33;5.47;;;3.67;;
4428;SDS011;2227;47.810;8.810;2023-07-29T08:13:00;6.55;;;3.40;;
4428;SDS011;2227;47.810;8.810;2023-07-29T08:15:27;5.40;;;3.65;;
4428;SDS011;2227;47.810;8.810;2023-07-29T08:17:53;6.32;;;3.75;;
4428;SDS011;2227;47.810;8.810;2023-07-29T08:20:21;6.60;;;3.58;;
4428;SDS011;2227;47.810;8.810;2023-07-29T08:22:48;4.05;;;2.88;;
4428;SDS011;2227;47.810;8.810;2023-07-29T08:25:15;4.72;;;3.38;;
4428;SDS011;2227;47.810;8.810;2023-07-29T08:27:42;6.50;;;3.08;;
4428;SDS011;2227;47.810;8.810;2023-07-29T08:30:08;6.35;;;3.40;;
4428;SDS011;2227;47.810;8.810;2023-07-29T08:32:35;5.53;;;3.63;;
4428;SDS011;2227;47.810;8.810;2023-07-29T08:35:03;6.32;;;3.15;;
4428;SDS011;2227;47.810;8.810;2023-07-29T08:37:29;6.10;;;3.30;;
4428;SDS011;2227;47.810;8.810;2023-07-29T08:39:57;4.55;;;3.03;;
4428;SDS011;2227;47.810;8.810;2023-07-29T08:42:24;5.82;;;3.45;;
4428;SDS011;2227;47.810;8.810;2023-07-29T08:44:55;4.40;;;2.95;;
4428;SDS011;2227;47.810;8.810;2023-07-29T08:47:22;5.15;;;3.20;;
4428;SDS011;2227;47.810;8.810;2023-07-29T08:49:50;4.93;;;2.92;;
4428;SDS011;2227;47.810;8.810;2023-07-29T08:52:18;4.82;;;2.90;;
4428;SDS011;2227;47.810;8.810;2023-07-29T08:54:46;6.25;;;2.90;;
4428;SDS011;2227;47.810;8.810;2023-07-29T08:57:13;4.32;;;2.78;;
4428;SDS011;2227;47.810;8.810;2023-07-29T08:59:40;4.82;;;3.30;;
4428;SDS011;2227;47.810;8.810;2023-07-29T09:02:07;5.10;;;3.05;;
4428;SDS011;2227;47.810;8.810;2023-07-29T09:04:34;5.35;;;3.38;;
4428;SDS011;2227;47.810;8.810;2023-07-29T09:07:01;4.05;;;2.70;;
4428;SDS011;2227;47.810;8.810;2023-07-29T09:09:28;6.10;;;3.63;;
4428;SDS011;2227;47.810;8.810;2023-07-29T09:11:55;4.63;;;3.08;;
4428;SDS011;2227;47.810;8.810;2023-07-29T09:14:23;4.28;;;2.70;;
4428;SDS011;2227;47.810;8.810;2023-07-29T09:16:50;4.53;;;2.75;;
4428;SDS011;2227;47.810;8.810;2023-07-29T09:19:17;4.78;;;2.70;;
4428;SDS011;2227;47.810;8.810;2023-07-29T09:21:46;6.15;;;3.03;;
4428;SDS011;2227;47.810;8.810;2023-07-29T09:24:15;4.63;;;2.42;;
4428;SDS011;2227;47.810;8.810;2023-07-29T09:26:50;5.40;;;2.47;;
4428;SDS011;2227;47.810;8.810;2023-07-29T09:29:23;4.18;;;2.35;;
4428;SDS011;2227;47.810;8.810;2023-07-29T09:31:53;4.63;;;2.55;;
4428;SDS011;2227;47.810;8.810;2023-07-29T09:34:20;3.70;;;2.40;;
4428;SDS011;2227;47.810;8.810;2023-07-29T09:36:50;4.63;;;3.00;;
4428;SDS011;2227;47.810;8.810;2023-07-29T09:39:16;3.70;;;2.15;;
4428;SDS011;2227;47.810;8.810;2023-07-29T09:41:47;3.55;;;2.30;;
4428;SDS011;2227;47.810;8.810;2023-07-29T09:44:14;3.45;;;1.92;;
4428;SDS011;2227;47.810;8.810;2023-07-29T09:46:41;3.25;;;1.92;;
4428;SDS011;2227;47.810;8.810;2023-07-29T09:49:12;3.45;;;1.90;;
4428;SDS011;2227;47.810;8.810;2023-07-29T09:51:39;3.95;;;1.80;;
4428;SDS011;2227;47.810;8.810;2023-07-29T09:54:06;3.00;;;1.88;;
4428;SDS011;2227;47.810;8.810;2023-07-29T09:56:33;4.10;;;2.00;;
4428;SDS011;2227;47.810;8.810;2023-07-29T09:59:08;3.25;;;1.90;;
4428;SDS011;2227;47.810;8.810;2023-07-29T10:01:35;3.83;;;1.83;;
4428;SDS011;2227;47.810;8.810;2023-07-29T10:04:03;4.50;;;1.90;;
4428;SDS011;2227;47.810;8.810;2023-07-29T10:06:32;3.58;;;1.70;;
4428;SDS011;2227;47.810;8.810;2023-07-29T10:09:02;4.40;;;1.85;;
4428;SDS011;2227;47.810;8.810;2023-07-29T10:11:28;3.63;;;1.85;;
4428;SDS011;2227;47.810;8.810;2023-07-29T10:13:57;3.50;;;2.13;;
4428;SDS011;2227;47.810;8.810;2023-07-29T10:16:34;3.15;;;2.03;;
4428;SDS011;2227;47.810;8.810;2023-07-29T10:19:04;2.63;;;1.70;;
4428;SDS011;2227;47.810;8.810;2023-07-29T10:21:31;4.35;;;1.98;;
4428;SDS011;2227;47.810;8.810;2023-07-29T10:23:59;2.67;;;1.70;;
4428;SDS011;2227;47.810;8.810;2023-07-29T10:26:29;3.28;;;1.70;;
4428;SDS011;2227;47.810;8.810;2023-07-29T10:28:59;2.50;;;1.50;;
4428;SDS011;2227;47.810;8.810;2023-07-29T10:31:31;3.75;;;2.08;;
4428;SDS011;2227;47.810;8.810;2023-07-29T10:33:59;2.63;;;1.70;;
4428;SDS011;2227;47.810;8.810;2023-07-29T10:36:26;4.22;;;1.45;;
4428;SDS011;2227;47.810;8.810;2023-07-29T10:38:54;3.00;;;1.60;;
4428;SDS011;2227;47.810;8.810;2023-07-29T10:41:21;3.00;;;1.63;;
4428;SDS011;2227;47.810;8.810;2023-07-29T10:43:49;2.97;;;1.80;;
4428;SDS011;2227;47.810;8.810;2023-07-29T10:46:16;4.50;;;2.05;;
4428;SDS011;2227;47.810;8.810;2023-07-29T10:48:51;2.88;;;1.80;;
4428;SDS011;2227;47.810;8.810;2023-07-29T10:51:29;3.53;;;1.90;;
4428;SDS011;2227;47.810;8.810;2023-07-29T10:54:00;3.70;;;1.65;;
4428;SDS011;2227;47.810;8.810;2023-07-29T10:56:48;3.00;;;1.70;;
4428;SDS011;2227;47.810;8.810;2023-07-29T11:01:53;2.42;;;1.50;;
4428;SDS011;2227;47.810;8.810;2023-07-29T11:04:23;2.40;;;1.52;;
4428;SDS011;2227;47.810;8.810;2023-07-29T11:15:12;4.55;;;1.75;;
4428;SDS011;2227;47.810;8.810;2023-07-29T11:17:45;2.97;;;1.50;;
4428;SDS011;2227;47.810;8.810;2023-07-29T11:20:14;3.42;;;1.60;;
4428;SDS011;2227;47.810;8.810;2023-07-29T11:22:42;2.83;;;1.70;;
4428;SDS011;2227;47.810;8.810;2023-07-29T11:25:11;2.90;;;1.52;;
4428;SDS011;2227;47.810;8.810;2023-07-29T11:27:39;3.10;;;1.80;;
4428;SDS011;2227;47.810;8.810;2023-07-29T11:30:09;3.40;;;1.65;;
4428;SDS011;2227;47.810;8.810;2023-07-29T11:32:38;3.33;;;1.70;;
4428;SDS011;2227;47.810;8.810;2023-07-29T11:35:11;2.60;;;1.48;;
4428;SDS011;2227;47.810;8.810;2023-07-29T11:37:41;2.80;;;1.77;;
4428;SDS011;2227;47.810;8.810;2023-07-29T11:40:13;3.25;;;1.85;;
4428;SDS011;2227;47.810;8.810;2023-07-29T11:42:44;4.20;;;1.88;;
4428;SDS011;2227;47.810;8.810;2023-07-29T11:45:13;3.25;;;1.90;;
4428;SDS011;2227;47.810;8.810;2023-07-29T11:47:43;3.08;;;1.60;;
4428;SDS011;2227;47.810;8.810;2023-07-29T11:50:11;3.03;;;1.65;;
4428;SDS011;2227;47.810;8.810;2023-07-29T11:52:43;2.83;;;1.50;;
4428;SDS011;2227;47.810;8.810;2023-07-29T11:55:12;3.30;;;2.20;;
4428;SDS011;2227;47.810;8.810;2023-07-29T11:57:40;3.25;;;1.88;;
4428;SDS011;2227;47.810;8.810;2023-07-29T12:00:09;3.03;;;1.83;;
4428;SDS011;2227;47.810;8.810;2023-07-29T12:02:39;4.13;;;1.60;;
4428;SDS011;2227;47.810;8.810;2023-07-29T12:05:08;3.00;;;1.77;;
4428;SDS011;2227;47.810;8.810;2023-07-29T12:07:36;2.50;;;1.55;;
4428;SDS011;2227;47.810;8.810;2023-07-29T12:10:05;3.45;;;1.60;;
4428;SDS011;2227;47.810;8.810;2023-07-29T12:12:33;2.60;;;1.42;;
4428;SDS011;2227;47.810;8.810;2023-07-29T12:15:03;3.72;;;1.50;;
4428;SDS011;2227;47.810;8.810;2023-07-29T12:17:31;2.63;;;1.60;;
4428;SDS011;2227;47.810;8.810;2023-07-29T12:20:03;3.20;;;1.90;;
4428;SDS011;2227;47.810;8.810;2023-07-29T12:22:35;3.13;;;1.55;;
4428;SDS011;2227;47.810;8.810;2023-07-29T12:25:02;3.42;;;1.80;;
4428;SDS011;2227;47.810;8.810;2023-07-29T12:27:29;3.58;;;1.80;;
4428;SDS011;2227;47.810;8.810;2023-07-29T12:29:57;3.33;;;1.70;;
4428;SDS011;2227;47.810;8.810;2023-07-29T12:32:26;2.78;;;1.70;;
4428;SDS011;2227;47.810;8.810;2023-07-29T12:34:53;3.78;;;2.08;;
4428;SDS011;2227;47.810;8.810;2023-07-29T12:37:20;3.63;;;2.20;;
4428;SDS011;2227;47.810;8.810;2023-07-29T12:39:57;4.05;;;2.47;;
4428;SDS011;2227;47.810;8.810;2023-07-29T12:42:24;4.13;;;2.30;;
4428;SDS011;2227;47.810;8.810;2023-07-29T12:44:51;4.05;;;1.95;;
4428;SDS011;2227;47.810;8.810;2023-07-29T12:47:18;4.07;;;2.17;;
4428;SDS011;2227;47.810;8.810;2023-07-29T12:49:44;3.47;;;1.98;;
4428;SDS011;2227;47.810;8.810;2023-07-29T12:52:11;6.25;;;2.30;;
4428;SDS011;2227;47.810;8.810;2023-07-29T12:54:38;2.97;;;1.65;;
4428;SDS011;2227;47.810;8.810;2023-07-29T12:57:06;4.15;;;1.80;;
4428;SDS011;2227;47.810;8.810;2023-07-29T12:59:33;3.42;;;2.00;;
4428;SDS011;2227;47.810;8.810;2023-07-29T13:02:00;3.28;;;1.88;;
4428;SDS011;2227;47.810;8.810;2023-07-29T13:04:27;3.33;;;1.75;;
4428;SDS011;2227;47.810;8.810;2023-07-29T13:06:53;3.53;;;1.90;;
4428;SDS011;2227;47.810;8.810;2023-07-29T13:09:20;2.97;;;1.85;;
4428;SDS011;2227;47.810;8.810;2023-07-29T13:11:47;3.25;;;1.73;;
4428;SDS011;2227;47.810;8.810;2023-07-29T13:14:14;3.35;;;1.50;;
4428;SDS011;2227;47.810;8.810;2023-07-29T13:16:40;2.88;;;1.80;;
4428;SDS011;2227;47.810;8.810;2023-07-29T13:19:07;3.60;;;1.92;;
4428;SDS011;2227;47.810;8.810;2023-07-29T13:21:34;3.33;;;1.70;;
4428;SDS011;2227;47.810;8.810;2023-07-29T13:24:01;3.38;;;1.95;;
4428;SDS011;2227;47.810;8.810;2023-07-29T13:26:27;2.78;;;1.63;;
4428;SDS011;2227;47.810;8.810;2023-07-29T13:28:54;4.20;;;2.10;;
4428;SDS011;2227;47.810;8.810;2023-07-29T13:31:22;2.42;;;1.50;;
4428;SDS011;2227;47.810;8.810;2023-07-29T13:33:49;3.15;;;1.42;;
4428;SDS011;2227;47.810;8.810;2023-07-29T13:36:15;2.90;;;1.67;;
4428;SDS011;2227;47.810;8.810;2023-07-29T13:38:42;3.40;;;1.48;;
4428;SDS011;2227;47.810;8.810;2023-07-29T13:41:09;2.50;;;1.38;;
4428;SDS011;2227;47.810;8.810;2023-07-29T13:43:35;2.63;;;1.40;;
4428;SDS011;2227;47.810;8.810;2023-07-29T13:46:02;3.38;;;1.40;;
4428;SDS011;2227;47.810;8.810;2023-07-29T13:48:29;2.40;;;1.20;;
4428;SDS011;2227;47.810;8.810;2023-07-29T13:50:57;2.65;;;1.10;;
4428;SDS011;2227;47.810;8.810;2023-07-29T13:53:24;2.63;;;1.13;;
4428;SDS011;2227;47.810;8.810;2023-07-29T13:55:52;2.83;;;1.20;;
4428;SDS011;2227;47.810;8.810;2023-07-29T13:58:18;1.92;;;1.00;;
4428;SDS011;2227;47.810;8.810;2023-07-29T14:00:45;1.85;;;1.00;;
4428;SDS011;2227;47.810;8.810;2023-07-29T14:03:12;2.78;;;0.90;;
4428;SDS011;2227;47.810;8.810;2023-07-29T14:05:39;2.83;;;0.88;;
4428;SDS011;2227;47.810;8.810;2023-07-29T14:08:05;2.97;;;1.23;;
4428;SDS011;2227;47.810;8.810;2023-07-29T14:10:32;3.22;;;1.08;;
4428;SDS011;2227;47.810;8.810;2023-07-29T14:12:59;2.33;;;1.10;;
4428;SDS011;2227;47.810;8.810;2023-07-29T14:15:26;2.95;;;1.50;;
4428;SDS011;2227;47.810;8.810;2023-07-29T14:17:54;3.53;;;1.80;;
4428;SDS011;2227;47.810;8.810;2023-07-29T14:20:21;4.05;;;1.38;;
4428;SDS011;2227;47.810;8.810;2023-07-29T14:22:48;3.60;;;1.65;;
4428;SDS011;2227;47.810;8.810;2023-07-29T14:25:15;2.90;;;1.80;;
4428;SDS011;2227;47.810;8.810;2023-07-29T14:27:42;3.33;;;1.58;;
4428;SDS011;2227;47.810;8.810;2023-07-29T14:30:09;3.55;;;1.75;;
4428;SDS011;2227;47.810;8.810;2023-07-29T14:32:36;3.00;;;1.88;;
4428;SDS011;2227;47.810;8.810;2023-07-29T14:35:03;3.45;;;2.00;;
4428;SDS011;2227;47.810;8.810;2023-07-29T14:37:31;2.90;;;1.63;;
4428;SDS011;2227;47.810;8.810;2023-07-29T14:39:58;3.42;;;1.98;;
4428;SDS011;2227;47.810;8.810;2023-07-29T14:42:26;3.13;;;1.92;;
4428;SDS011;2227;47.810;8.810;2023-07-29T14:44:53;3.80;;;2.05;;
4428;SDS011;2227;47.810;8.810;2023-07-29T14:47:21;4.53;;;1.92;;
4428;SDS011;2227;47.810;8.810;2023-07-29T14:49:47;3.03;;;1.70;;
4428;SDS011;2227;47.810;8.810;2023-07-29T14:52:14;3.50;;;1.77;;
4428;SDS011;2227;47.810;8.810;2023-07-29T14:54:41;3.40;;;1.95;;
4428;SDS011;2227;47.810;8.810;2023-07-29T14:57:09;2.85;;;1.65;;
4428;SDS011;2227;47.810;8.810;2023-07-29T14:59:36;2.65;;;1.55;;
4428;SDS011;2227;47.810;8.810;2023-07-29T15:02:03;3.20;;;1.20;;
4428;SDS011;2227;47.810;8.810;2023-07-29T15:04:30;2.70;;;1.45;;
4428;SDS011;2227;47.810;8.810;2023-07-29T15:06:56;3.47;;;1.70;;
4428;SDS011;2227;47.810;8.810;2023-07-29T15:09:24;2.80;;;1.52;;
4428;SDS011;2227;47.810;8.810;2023-07-29T15:11:51;3.05;;;1.52;;
4428;SDS011;2227;47.810;8.810;2023-07-29T15:14:17;3.72;;;1.58;;
4428;SDS011;2227;47.810;8.810;2023-07-29T15:16:44;3.58;;;1.75;;
4428;SDS011;2227;47.810;8.810;2023-07-29T15:19:11;2.63;;;1.38;;
4428;SDS011;2227;47.810;8.810;2023-07-29T15:21:43;3.05;;;1.50;;
4428;SDS011;2227;47.810;8.810;2023-07-29T15:24:11;3.08;;;1.67;;
4428;SDS011;2227;47.810;8.810;2023-07-29T15:26:38;3.50;;;1.70;;
4428;SDS011;2227;47.810;8.810;2023-07-29T15:29:05;4.22;;;1.50;;
4428;SDS011;2227;47.810;8.810;2023-07-29T15:31:33;2.50;;;1.35;;
4428;SDS011;2227;47.810;8.810;2023-07-29T15:34:00;3.10;;;1.75;;
4428;SDS011;2227;47.810;8.810;2023-07-29T15:36:27;2.75;;;1.65;;
4428;SDS011;2227;47.810;8.810;2023-07-29T15:38:54;3.50;;;1.70;;
4428;SDS011;2227;47.810;8.810;2023-07-29T15:41:20;3.80;;;1.75;;
4428;SDS011;2227;47.810;8.810;2023-07-29T15:43:47;2.42;;;1.60;;
4428;SDS011;2227;47.810;8.810;2023-07-29T15:46:14;3.78;;;1.88;;
4428;SDS011;2227;47.810;8.810;2023-07-29T15:48:41;3.20;;;1.95;;
4428;SDS011;2227;47.810;8.810;2023-07-29T15:51:07;3.00;;;1.85;;
4428;SDS011;2227;47.810;8.810;2023-07-29T15:53:34;3.38;;;1.60;;
4428;SDS011;2227;47.810;8.810;2023-07-29T15:56:01;3.35;;;2.05;;
4428;SDS011;2227;47.810;8.810;2023-07-29T15:58:28;3.33;;;1.80;;
4428;SDS011;2227;47.810;8.810;2023-07-29T16:00:54;4.18;;;1.80;;
4428;SDS011;2227;47.810;8.810;2023-07-29T16:03:21;3.50;;;1.80;;
4428;SDS011;2227;47.810;8.810;2023-07-29T16:05:49;3.20;;;2.08;;
4428;SDS011;2227;47.810;8.810;2023-07-29T16:08:15;3.10;;;1.65;;
4428;SDS011;2227;47.810;8.810;2023-07-29T16:10:42;3.13;;;1.95;;
4428;SDS011;2227;47.810;8.810;2023-07-29T16:13:09;3.15;;;1.67;;
4428;SDS011;2227;47.810;8.810;2023-07-29T16:15:36;2.92;;;1.52;;
4428;SDS011;2227;47.810;8.810;2023-07-29T16:18:03;3.60;;;1.65;;
4428;SDS011;2227;47.810;8.810;2023-07-29T16:20:29;4.35;;;1.75;;
4428;SDS011;2227;47.810;8.810;2023-07-29T16:22:56;2.95;;;1.55;;
4428;SDS011;2227;47.810;8.810;2023-07-29T16:25:23;3.80;;;1.77;;
4428;SDS011;2227;47.810;8.810;2023-07-29T16:27:49;3.85;;;1.73;;
4428;SDS011;2227;47.810;8.810;2023-07-29T16:30:16;2.70;;;1.45;;
4428;SDS011;2227;47.810;8.810;2023-07-29T16:32:43;3.55;;;1.83;;
4428;SDS011;2227;47.810;8.810;2023-07-29T16:35:10;3.85;;;2.10;;
4428;SDS011;2227;47.810;8.810;2023-07-29T16:37:37;3.40;;;1.83;;
4428;SDS011;2227;47.810;8.810;2023-07-29T16:40:04;3.53;;;1.80;;
4428;SDS011;2227;47.810;8.810;2023-07-29T16:42:32;3.95;;;1.70;;
4428;SDS011;2227;47.810;8.810;2023-07-29T16:44:59;4.45;;;2.10;;
4428;SDS011;2227;47.810;8.810;2023-07-29T16:47:26;3.70;;;2.38;;
4428;SDS011;2227;47.810;8.810;2023-07-29T16:49:53;4.25;;;2.00;;
4428;SDS011;2227;47.810;8.810;2023-07-29T16:52:28;3.10;;;1.60;;
4428;SDS011;2227;47.810;8.810;2023-07-29T16:54:55;2.95;;;1.70;;
4428;SDS011;2227;47.810;8.810;2023-07-29T16:57:21;4.35;;;2.00;;
4428;SDS011;2227;47.810;8.810;2023-07-29T16:59:48;4.63;;;2.10;;
4428;SDS011;2227;47.810;8.810;2023-07-29T17:02:15;3.45;;;2.17;;
4428;SDS011;2227;47.810;8.810;2023-07-29T17:04:42;4.25;;;2.05;;
4428;SDS011;2227;47.810;8.810;2023-07-29T17:07:08;4.43;;;2.20;;
4428;SDS011;2227;47.810;8.810;2023-07-29T17:09:35;3.72;;;2.10;;
4428;SDS011;2227;47.810;8.810;2023-07-29T17:12:02;4.82;;;2.20;;
4428;SDS011;2227;47.810;8.810;2023-07-29T17:14:29;3.08;;;1.98;;
4428;SDS011;2227;47.810;8.810;2023-07-29T17:16:56;3.80;;;2.03;;
4428;SDS011;2227;47.810;8.810;2023-07-29T17:19:23;3.60;;;2.00;;
4428;SDS011;2227;47.810;8.810;2023-07-29T17:21:50;3.85;;;1.90;;
4428;SDS011;2227;47.810;8.810;2023-07-29T17:24:16;3.58;;;2.10;;
4428;SDS011;2227;47.810;8.810;2023-07-29T17:26:43;4.38;;;2.05;;
4428;SDS011;2227;47.810;8.810;2023-07-29T17:29:10;4.07;;;2.05;;
4428;SDS011;2227;47.810;8.810;2023-07-29T17:31:37;5.47;;;2.13;;
4428;SDS011;2227;47.810;8.810;2023-07-29T17:34:03;4.13;;;2.25;;
4428;SDS011;2227;47.810;8.810;2023-07-29T17:36:30;4.63;;;2.40;;
4428;SDS011;2227;47.810;8.810;2023-07-29T17:38:57;3.42;;;2.03;;
4428;SDS011;2227;47.810;8.810;2023-07-29T17:41:23;4.43;;;2.53;;
4428;SDS011;2227;47.810;8.810;2023-07-29T17:43:50;5.15;;;2.20;;
4428;SDS011;2227;47.810;8.810;2023-07-29T17:46:17;4.47;;;2.67;;
4428;SDS011;2227;47.810;8.810;2023-07-29T17:48:47;4.50;;;2.60;;
4428;SDS011;2227;47.810;8.810;2023-07-29T17:51:14;5.22;;;2.45;;
4428;SDS011;2227;47.810;8.810;2023-07-29T17:53:41;4.90;;;2.47;;
4428;SDS011;2227;47.810;8.810;2023-07-29T17:56:08;4.03;;;2.40;;
4428;SDS011;2227;47.810;8.810;2023-07-29T17:58:36;3.55;;;2.35;;
4428;SDS011;2227;47.810;8.810;2023-07-29T18:01:03;3.55;;;2.08;;
4428;SDS011;2227;47.810;8.810;2023-07-29T18:03:30;4.50;;;2.28;;
4428;SDS011;2227;47.810;8.810;2023-07-29T18:05:57;3.97;;;2.40;;
4428;SDS011;2227;47.810;8.810;2023-07-29T18:08:24;4.78;;;2.33;;
4428;SDS011;2227;47.810;8.810;2023-07-29T18:10:51;4.65;;;2.50;;
4428;SDS011;2227;47.810;8.810;2023-07-29T18:13:18;4.78;;;2.50;;
4428;SDS011;2227;47.810;8.810;2023-07-29T18:15:49;4.88;;;2.55;;
4428;SDS011;2227;47.810;8.810;2023-07-29T18:18:17;4.35;;;2.70;;
4428;SDS011;2227;47.810;8.810;2023-07-29T18:20:43;4.65;;;2.65;;
4428;SDS011;2227;47.810;8.810;2023-07-29T18:23:11;5.32;;;2.60;;
4428;SDS011;2227;47.810;8.810;2023-07-29T18:25:38;4.28;;;2.72;;
4428;SDS011;2227;47.810;8.810;2023-07-29T18:28:05;4.63;;;2.90;;
4428;SDS011;2227;47.810;8.810;2023-07-29T18:30:32;4.78;;;2.85;;
4428;SDS011;2227;47.810;8.810;2023-07-29T18:32:58;5.05;;;2.88;;
4428;SDS011;2227;47.810;8.810;2023-07-29T18:35:25;4.65;;;2.83;;
4428;SDS011;2227;47.810;8.810;2023-07-29T18:37:52;4.72;;;2.97;;
4428;SDS011;2227;47.810;8.810;2023-07-29T18:40:25;4.95;;;2.90;;
4428;SDS011;2227;47.810;8.810;2023-07-29T18:42:54;5.32;;;2.65;;
4428;SDS011;2227;47.810;8.810;2023-07-29T18:45:21;4.90;;;3.00;;
4428;SDS011;2227;47.810;8.810;2023-07-29T18:47:48;5.20;;;3.22;;
4428;SDS011;2227;47.810;8.810;2023-07-29T18:50:16;4.80;;;3.08;;
4428;SDS011;2227;47.810;8.810;2023-07-29T18:52:43;4.97;;;2.70;;
4428;SDS011;2227;47.810;8.810;2023-07-29T18:55:10;6.15;;;3.40;;
4428;SDS011;2227;47.810;8.810;2023-07-29T18:57:37;3.88;;;2.70;;
4428;SDS011;2227;47.810;8.810;2023-07-29T19:00:04;4.60;;;2.90;;
4428;SDS011;2227;47.810;8.810;2023-07-29T19:02:31;5.55;;;3.13;;
4428;SDS011;2227;47.810;8.810;2023-07-29T19:04:58;5.57;;;3.17;;
4428;SDS011;2227;47.810;8.810;2023-07-29T19:07:25;4.78;;;3.28;;
4428;SDS011;2227;47.810;8.810;2023-07-29T19:09:52;8.07;;;3.00;;
4428;SDS011;2227;47.810;8.810;2023-07-29T19:12:23;4.40;;;3.20;;
4428;SDS011;2227;47.810;8.810;2023-07-29T19:14:50;5.20;;;3.28;;
4428;SDS011;2227;47.810;8.810;2023-07-29T19:17:17;6.63;;;3.05;;
4428;SDS011;2227;47.810;8.810;2023-07-29T19:19:43;6.13;;;3.25;;
4428;SDS011;2227;47.810;8.810;2023-07-29T19:22:10;5.70;;;3.38;;
4428;SDS011;2227;47.810;8.810;2023-07-29T19:24:37;4.88;;;3.03;;
4428;SDS011;2227;47.810;8.810;2023-07-29T19:27:04;5.18;;;3.17;;
4428;SDS011;2227;47.810;8.810;2023-07-29T19:29:34;6.00;;;3.05;;
4428;SDS011;2227;47.810;8.810;2023-07-29T19:32:00;5.18;;;3.15;;
4428;SDS011;2227;47.810;8.810;2023-07-29T19:34:27;4.53;;;3.20;;
4428;SDS011;2227;47.810;8.810;2023-07-29T19:36:54;5.07;;;3.40;;
4428;SDS011;2227;47.810;8.810;2023-07-29T19:39:23;5.80;;;3.10;;
4428;SDS011;2227;47.810;8.810;2023-07-29T19:41:49;4.47;;;2.90;;
4428;SDS011;2227;47.810;8.810;2023-07-29T19:44:16;6.85;;;3.40;;
4428;SDS011;2227;47.810;8.810;2023-07-29T19:46:48;4.50;;;2.78;;
4428;SDS011;2227;47.810;8.810;2023-07-29T19:49:16;4.50;;;2.70;;
4428;SDS011;2227;47.810;8.810;2023-07-29T19:51:42;6.32;;;2.92;;
4428;SDS011;2227;47.810;8.810;2023-07-29T19:54:09;5.60;;;2.80;;
4428;SDS011;2227;47.810;8.810;2023-07-29T19:56:36;5.07;;;3.17;;
4428;SDS011;2227;47.810;8.810;2023-07-29T19:59:03;5.55;;;2.65;;